createdAt,value
2022-11-15T00:02:51.021Z,99717.00
2022-11-15T00:05:53.264Z,99725.72
2022-11-15T00:08:55.580Z,99718.97
2022-11-15T00:11:57.780Z,99723.38
2022-11-15T00:14:59.951Z,99722.06
2022-11-15T00:18:02.216Z,99716.81
2022-11-15T00:21:11.401Z,99715.19
2022-11-15T00:24:13.706Z,99715.50
2022-11-15T00:27:15.888Z,99706.81
2022-11-15T00:30:18.402Z,99707.03
2022-11-15T00:33:36.065Z,99700.34
2022-11-15T00:36:38.295Z,99696.09
2022-11-15T00:39:40.549Z,99708.84
2022-11-15T00:42:42.901Z,99698.03
2022-11-15T00:45:45.127Z,99697.06
2022-11-15T00:48:47.375Z,99696.84
2022-11-15T00:51:49.614Z,99698.56
2022-11-15T00:54:51.820Z,99690.59
2022-11-15T00:57:54.163Z,99691.50
2022-11-15T01:00:56.449Z,99689.97
2022-11-15T01:04:01.249Z,99679.50
2022-11-15T01:07:03.708Z,99673.81
2022-11-15T01:10:06.698Z,99676.00
2022-11-15T01:13:09.234Z,99674.34
2022-11-15T01:16:17.950Z,99677.03
2022-11-15T01:19:20.137Z,99665.56
2022-11-15T01:22:22.289Z,99672.06
2022-11-15T01:25:24.420Z,99672.00
2022-11-15T01:28:26.569Z,99661.44
2022-11-15T01:31:28.730Z,99668.53
2022-11-15T01:34:30.907Z,99666.44
2022-11-15T01:37:33.106Z,99656.94
2022-11-15T01:40:35.317Z,99657.06
2022-11-15T01:43:37.808Z,99664.63
2022-11-15T01:46:40.036Z,99661.41
2022-11-15T01:49:53.947Z,99654.81
2022-11-15T01:52:56.524Z,99660.50
2022-11-15T01:55:59.147Z,99649.56
2022-11-15T01:59:04.702Z,99648.44
2022-11-15T02:02:07.189Z,99654.31
2022-11-15T02:05:10.233Z,99643.28
2022-11-15T02:08:21.020Z,99645.09
2022-11-15T02:11:23.875Z,99634.66
2022-11-15T02:14:28.297Z,99645.47
2022-11-15T02:17:33.715Z,99627.41
2022-11-15T02:21:12.666Z,99631.78
2022-11-15T02:24:36.757Z,99626.06
2022-11-15T02:27:59.563Z,99637.88
2022-11-15T02:31:02.125Z,99626.69
2022-11-15T02:34:28.711Z,99635.47
2022-11-15T02:37:36.760Z,99630.06
2022-11-15T02:41:10.133Z,99628.03
2022-11-15T02:44:20.472Z,99623.00
2022-11-15T02:47:23.592Z,99620.06
2022-11-15T02:50:28.623Z,99626.97
2022-11-15T02:53:31.096Z,99613.22
2022-11-15T02:56:33.621Z,99611.84
2022-11-15T03:00:04.795Z,99617.84
2022-11-15T03:03:35.223Z,99611.22
2022-11-15T03:06:53.358Z,99612.00
2022-11-15T03:10:07.031Z,99606.50
2022-11-15T03:13:09.154Z,99599.34
2022-11-15T03:16:29.692Z,99599.56
2022-11-15T03:19:36.145Z,99607.50
2022-11-15T03:22:40.517Z,99611.38
2022-11-15T03:25:47.606Z,99605.63
2022-11-15T03:29:00.292Z,99597.13
2022-11-15T03:32:25.081Z,99597.09
2022-11-15T03:35:29.296Z,99595.78
2022-11-15T03:38:33.120Z,99599.66
2022-11-15T03:42:14.496Z,99589.19
2022-11-15T03:45:48.137Z,99590.84
2022-11-15T03:48:58.031Z,99589.50
2022-11-15T03:52:00.541Z,99589.22
2022-11-15T03:55:04.644Z,99593.81
2022-11-15T03:58:07.317Z,99580.00
2022-11-15T04:01:09.581Z,99576.75
2022-11-15T04:04:11.817Z,99569.69
2022-11-15T04:07:14.107Z,99570.66
2022-11-15T04:10:17.179Z,99574.19
2022-11-15T04:13:19.414Z,99561.56
2022-11-15T04:16:21.602Z,99559.41
2022-11-15T04:19:42.532Z,99553.03
2022-11-15T04:23:03.204Z,99557.38
2022-11-15T04:26:08.614Z,99558.19
2022-11-15T04:29:29.373Z,99552.78
2022-11-15T04:32:31.542Z,99542.91
2022-11-15T04:35:33.853Z,99517.28
2022-11-15T04:38:37.092Z,99517.09
2022-11-15T04:41:39.247Z,99516.62
2022-11-15T04:44:41.406Z,99525.84
2022-11-15T04:47:47.034Z,99516.62
2022-11-15T04:50:50.106Z,99523.69
2022-11-15T04:53:52.292Z,99518.94
2022-11-15T04:56:54.472Z,99515.31
2022-11-15T04:59:56.661Z,99529.03
2022-11-15T05:03:17.532Z,99538.06
2022-11-15T05:06:19.699Z,99546.97
2022-11-15T05:09:22.796Z,99525.38
2022-11-15T05:12:24.962Z,99518.81
2022-11-15T05:15:27.109Z,99518.44
2022-11-15T05:18:29.305Z,99521.53
2022-11-15T05:21:31.637Z,99523.84
2022-11-15T05:24:33.844Z,99524.84
2022-11-15T05:27:36.295Z,99523.84
2022-11-15T05:30:38.461Z,99533.88
2022-11-15T05:33:41.378Z,99529.78
2022-11-15T05:36:44.394Z,99525.00
2022-11-15T05:39:46.560Z,99518.47
2022-11-15T05:42:49.043Z,99524.91
2022-11-15T05:45:51.471Z,99522.94
2022-11-15T05:48:54.501Z,99520.47
2022-11-15T05:51:57.945Z,99524.25
2022-11-15T05:55:00.270Z,99520.94
2022-11-15T05:58:02.490Z,99531.66
2022-11-15T06:01:05.385Z,99525.56
2022-11-15T06:04:07.583Z,99527.38
2022-11-15T06:07:09.872Z,99531.31
2022-11-15T06:10:12.247Z,99526.06
2022-11-15T06:13:14.444Z,99517.81
2022-11-15T06:16:16.637Z,99521.63
2022-11-15T06:19:20.610Z,99523.63
2022-11-15T06:22:23.618Z,99510.09
2022-11-15T06:25:26.627Z,99514.69
2022-11-15T06:28:35.331Z,99513.37
2022-11-15T06:31:37.521Z,99521.44
2022-11-15T06:34:39.722Z,99517.34
2022-11-15T06:37:42.342Z,99516.34
2022-11-15T06:40:44.501Z,99520.94
2022-11-15T06:43:46.666Z,99520.63
2022-11-15T06:46:48.851Z,99518.97
2022-11-15T06:49:51.146Z,99518.00
2022-11-15T06:52:53.306Z,99510.91
2022-11-15T06:55:59.685Z,99508.28
2022-11-15T06:59:02.095Z,99507.63
2022-11-15T07:02:04.540Z,99509.94
2022-11-15T07:05:07.103Z,99519.50
2022-11-15T07:08:09.886Z,99521.16
2022-11-15T07:11:12.260Z,99523.31
2022-11-15T07:14:14.559Z,99520.50
2022-11-15T07:17:16.841Z,99521.16
2022-11-15T07:20:19.406Z,99515.72
2022-11-15T07:23:21.594Z,99513.75
2022-11-15T07:26:23.791Z,99510.63
2022-11-15T07:29:26.139Z,99513.06
2022-11-15T07:32:28.341Z,99507.66
2022-11-15T07:35:31.135Z,99506.69
2022-11-15T07:38:41.021Z,99512.75
2022-11-15T07:41:44.606Z,99506.34
2022-11-15T07:44:46.768Z,99499.25
2022-11-15T07:47:50.170Z,99504.16
2022-11-15T07:50:52.397Z,99498.44
2022-11-15T07:53:54.659Z,99510.44
2022-11-15T07:56:56.820Z,99519.13
2022-11-15T07:59:58.993Z,99506.75
2022-11-15T08:03:12.398Z,99501.28
2022-11-15T08:06:14.578Z,99496.75
2022-11-15T08:09:16.778Z,99488.56
2022-11-15T08:12:18.935Z,99489.31
2022-11-15T08:15:21.111Z,99490.59
2022-11-15T08:18:23.486Z,99486.16
2022-11-15T08:21:25.655Z,99476.44
2022-11-15T08:24:27.975Z,99469.00
2022-11-15T08:27:30.180Z,99476.16
2022-11-15T08:30:37.223Z,99462.84
2022-11-15T08:33:39.420Z,99467.19
2022-11-15T08:36:45.975Z,99465.53
2022-11-15T08:39:48.475Z,99456.66
2022-11-15T08:42:50.633Z,99448.81
2022-11-15T08:45:52.785Z,99446.63
2022-11-15T08:48:55.116Z,99444.44
2022-11-15T08:51:57.392Z,99455.38
2022-11-15T08:54:59.592Z,99445.09
2022-11-15T08:58:01.783Z,99443.34
2022-11-15T09:01:05.043Z,99446.72
2022-11-15T09:04:07.446Z,99446.88
2022-11-15T09:07:12.056Z,99439.63
2022-11-15T09:10:14.287Z,99444.63
2022-11-15T09:13:16.448Z,99444.69
2022-11-15T09:16:18.949Z,99448.50
2022-11-15T09:19:21.659Z,99443.94
2022-11-15T09:22:23.864Z,99434.84
2022-11-15T09:25:26.038Z,99445.16
2022-11-15T09:28:29.058Z,99438.03
2022-11-15T09:31:31.428Z,99437.94
2022-11-15T09:34:33.654Z,99432.41
2022-11-15T09:37:35.873Z,99425.72
2022-11-15T09:40:38.953Z,99421.37
2022-11-15T09:44:08.366Z,99419.47
2022-11-15T09:47:38.667Z,99416.06
2022-11-15T09:50:49.683Z,99405.25
2022-11-15T09:57:36.314Z,99394.50
2022-11-15T10:00:48.921Z,99386.63
2022-11-15T10:03:51.321Z,99387.81
2022-11-15T10:07:20.767Z,99382.44
2022-11-15T10:10:46.462Z,99389.19
2022-11-15T10:13:50.465Z,99389.38
2022-11-15T10:17:08.820Z,99390.56
2022-11-15T10:20:21.196Z,99377.16
2022-11-15T10:23:24.255Z,99380.69
2022-11-15T10:26:26.457Z,99369.28
2022-11-15T10:29:28.656Z,99365.84
2022-11-15T10:32:31.278Z,99369.22
2022-11-15T10:35:33.517Z,99357.38
2022-11-15T10:38:50.944Z,99361.06
2022-11-15T10:41:53.211Z,99350.78
2022-11-15T10:44:55.632Z,99352.31
2022-11-15T10:48:12.999Z,99350.22
2022-11-15T10:51:27.151Z,99342.66
2022-11-15T10:54:41.414Z,99336.84
2022-11-15T10:58:02.549Z,99331.37
2022-11-15T11:01:23.148Z,99333.81
2022-11-15T11:04:25.530Z,99327.53
2022-11-15T11:07:31.080Z,99328.03
2022-11-15T11:10:52.243Z,99310.28
2022-11-15T11:13:55.632Z,99298.50
2022-11-15T11:17:33.215Z,99301.09
2022-11-15T11:20:41.242Z,99294.34
2022-11-15T11:23:52.189Z,99290.69
2022-11-15T11:27:31.540Z,99287.63
2022-11-15T11:30:58.376Z,99286.16
2022-11-15T11:34:06.417Z,99287.19
2022-11-15T11:37:27.253Z,99284.34
2022-11-15T11:40:34.566Z,99277.19
2022-11-15T11:44:00.908Z,99269.41
2022-11-15T11:47:09.027Z,99266.50
2022-11-15T11:50:23.041Z,99269.28
2022-11-15T11:53:32.588Z,99267.25
2022-11-15T11:56:36.426Z,99269.87
2022-11-15T11:59:43.498Z,99264.47
2022-11-15T12:03:12.063Z,99250.59
2022-11-15T12:06:16.834Z,99243.88
2022-11-15T12:09:41.469Z,99246.06
2022-11-15T12:13:10.070Z,99230.87
2022-11-15T12:16:33.067Z,99225.28
2022-11-15T12:19:36.387Z,99225.66
2022-11-15T12:22:48.476Z,99221.75
2022-11-15T12:25:55.333Z,99221.31
2022-11-15T12:29:07.893Z,99223.34
2022-11-15T12:32:25.062Z,99225.84
2022-11-15T12:35:43.255Z,99217.66
2022-11-15T12:39:08.422Z,99219.25
2022-11-15T12:42:13.533Z,99209.97
2022-11-15T12:45:27.245Z,99202.31
2022-11-15T12:48:38.898Z,99205.56
2022-11-15T12:51:44.081Z,99198.91
2022-11-15T12:54:54.954Z,99192.28
2022-11-15T12:58:30.465Z,99188.25
2022-11-15T13:01:39.026Z,99191.16
2022-11-15T13:04:41.286Z,99191.59
2022-11-15T13:07:43.369Z,99185.63
2022-11-15T13:10:45.550Z,99184.09
2022-11-15T13:13:47.736Z,99184.63
2022-11-15T13:16:49.980Z,99183.59
2022-11-15T13:19:59.894Z,99175.12
2022-11-15T13:23:12.434Z,99168.22
2022-11-15T13:26:17.644Z,99167.03
2022-11-15T13:29:20.941Z,99171.09
2022-11-15T13:32:23.324Z,99163.97
2022-11-15T13:35:28.774Z,99169.94
2022-11-15T13:38:31.249Z,99177.87
2022-11-15T13:41:46.575Z,99163.47
2022-11-15T13:45:02.921Z,99172.50
2022-11-15T13:48:07.161Z,99170.72
2022-11-15T13:51:14.056Z,99161.34
2022-11-15T13:54:28.446Z,99161.22
2022-11-15T13:57:58.298Z,99164.00
2022-11-15T14:01:03.068Z,99163.44
2022-11-15T14:04:05.345Z,99155.63
2022-11-15T14:07:17.784Z,99156.00
2022-11-15T14:10:31.800Z,99147.06
2022-11-15T14:13:34.046Z,99139.75
2022-11-15T14:16:38.639Z,99122.91
2022-11-15T14:19:41.164Z,99107.88
2022-11-15T14:23:02.258Z,99103.50
2022-11-15T14:26:11.291Z,99108.09
2022-11-15T14:29:25.105Z,99110.75
2022-11-15T14:32:29.706Z,99116.31
2022-11-15T14:35:31.905Z,99107.84
2022-11-15T14:38:34.391Z,99103.19
2022-11-15T14:41:40.650Z,99100.00
2022-11-15T14:44:46.090Z,99095.38
2022-11-15T14:47:49.024Z,99095.63
2022-11-15T14:50:51.289Z,99103.91
2022-11-15T14:53:53.532Z,99091.16
2022-11-15T14:56:55.665Z,99091.34
2022-11-15T14:59:57.942Z,99085.00
2022-11-15T15:03:00.181Z,99083.81
2022-11-15T15:06:02.341Z,99080.66
2022-11-15T15:09:04.747Z,99082.91
2022-11-15T15:12:22.514Z,99070.41
2022-11-15T15:15:34.215Z,99065.88
2022-11-15T15:18:36.387Z,99062.94
2022-11-15T15:21:38.814Z,99059.09
2022-11-15T15:24:41.051Z,99057.16
2022-11-15T15:27:45.920Z,99061.25
2022-11-15T15:30:48.242Z,99069.66
2022-11-15T15:33:50.512Z,99062.53
2022-11-15T15:37:27.188Z,99067.44
2022-11-15T15:40:32.217Z,99073.56
2022-11-15T15:43:34.453Z,99066.44
2022-11-15T15:46:36.701Z,99058.47
2022-11-15T15:49:38.960Z,99060.72
2022-11-15T15:52:41.175Z,99056.44
2022-11-15T15:55:43.389Z,99051.97
2022-11-15T15:58:45.591Z,99050.47
2022-11-15T16:01:47.781Z,99054.63
2022-11-15T16:04:50.010Z,99040.50
2022-11-15T16:07:52.234Z,99052.34
2022-11-15T16:10:54.411Z,99055.34
2022-11-15T16:13:56.549Z,99053.44
2022-11-15T16:16:58.880Z,99056.69
2022-11-15T16:20:01.104Z,99057.53
2022-11-15T16:23:09.592Z,99058.91
2022-11-15T16:26:26.479Z,99060.59
2022-11-15T16:29:29.281Z,99054.88
2022-11-15T16:32:31.461Z,99053.50
2022-11-15T16:35:33.776Z,99054.69
2022-11-15T16:38:37.008Z,99040.94
2022-11-15T16:41:39.426Z,99039.03
2022-11-15T16:44:41.662Z,99039.09
2022-11-15T16:47:43.780Z,99036.66
2022-11-15T16:50:46.409Z,99035.06
2022-11-15T16:53:51.541Z,99035.28
2022-11-15T16:56:53.919Z,99031.56
2022-11-15T16:59:56.257Z,99035.06
2022-11-15T17:02:58.575Z,99030.28
2022-11-15T17:06:00.920Z,99027.94
2022-11-15T17:09:03.155Z,99019.38
2022-11-15T17:12:06.219Z,99025.19
2022-11-15T17:15:10.293Z,99021.25
2022-11-15T17:18:13.399Z,99022.25
2022-11-15T17:21:18.367Z,99025.00
2022-11-15T17:24:21.284Z,99012.81
2022-11-15T17:27:23.860Z,99010.87
2022-11-15T17:30:26.882Z,98997.72
2022-11-15T17:33:29.113Z,98998.09
2022-11-15T17:36:32.020Z,99001.69
2022-11-15T17:39:34.192Z,98991.56
2022-11-15T17:42:36.642Z,98991.06
2022-11-15T17:45:42.390Z,98990.62
2022-11-15T17:48:45.553Z,98984.47
2022-11-15T17:51:50.124Z,98976.41
2022-11-15T17:54:52.513Z,98982.25
2022-11-15T17:57:55.180Z,98977.41
2022-11-15T18:01:26.377Z,98981.56
2022-11-15T18:04:29.074Z,98971.63
2022-11-15T18:07:31.357Z,98971.19
2022-11-15T18:10:33.870Z,98971.00
2022-11-15T18:13:37.443Z,98964.09
2022-11-15T18:16:40.342Z,98967.59
2022-11-15T18:19:42.542Z,98962.38
2022-11-15T18:22:45.036Z,98958.94
2022-11-15T18:25:51.899Z,98955.66
2022-11-15T18:28:57.417Z,98950.53
2022-11-15T18:31:59.846Z,98945.84
2022-11-15T18:35:02.255Z,98933.34
2022-11-15T18:38:05.240Z,98938.75
2022-11-15T18:41:12.921Z,98953.78
2022-11-15T18:44:15.724Z,98953.59
2022-11-15T18:47:17.995Z,98941.37
2022-11-15T18:50:20.331Z,98936.22
2022-11-15T18:53:22.472Z,98939.38
2022-11-15T18:56:25.982Z,98935.38
2022-11-15T18:59:29.619Z,98929.06
2022-11-15T19:02:32.022Z,98923.28
2022-11-15T19:05:35.448Z,98929.16
2022-11-15T19:08:38.578Z,98918.13
2022-11-15T19:11:41.305Z,98916.66
2022-11-15T19:14:43.854Z,98918.56
2022-11-15T19:17:46.292Z,98919.31
2022-11-15T19:20:49.907Z,98919.31
2022-11-15T19:23:54.161Z,98908.44
2022-11-15T19:26:56.680Z,98919.75
2022-11-15T19:29:59.480Z,98916.88
2022-11-15T19:33:01.666Z,98912.16
2022-11-15T19:36:11.364Z,98892.16
2022-11-15T19:39:17.967Z,98890.63
2022-11-15T19:42:20.428Z,98899.31
2022-11-15T19:45:23.810Z,98892.53
2022-11-15T19:48:26.757Z,98888.84
2022-11-15T19:51:30.847Z,98890.44
2022-11-15T19:54:33.606Z,98881.94
2022-11-15T19:57:36.006Z,98880.78
2022-11-15T20:00:38.753Z,98874.44
2022-11-15T20:03:41.031Z,98876.41
2022-11-15T20:06:44.561Z,98878.00
2022-11-15T20:09:46.969Z,98876.56
2022-11-15T20:12:49.221Z,98872.28
2022-11-15T20:15:52.528Z,98873.69
2022-11-15T20:18:54.984Z,98870.97
2022-11-15T20:21:57.508Z,98873.69
2022-11-15T20:24:59.712Z,98866.00
2022-11-15T20:28:01.903Z,98858.06
2022-11-15T20:31:04.860Z,98852.28
2022-11-15T20:34:07.597Z,98843.00
2022-11-15T20:37:09.930Z,98838.75
2022-11-15T20:40:12.603Z,98831.47
2022-11-15T20:43:16.154Z,98829.41
2022-11-15T20:46:18.401Z,98825.44
2022-11-15T20:49:20.567Z,98824.63
2022-11-15T20:52:22.935Z,98821.16
2022-11-15T20:55:25.352Z,98815.59
2022-11-15T20:58:30.225Z,98817.81
2022-11-15T21:01:32.683Z,98808.81
2022-11-15T21:04:35.102Z,98811.53
2022-11-15T21:07:37.300Z,98805.75
2022-11-15T21:10:59.318Z,98812.03
2022-11-15T21:14:06.280Z,98810.19
2022-11-15T21:17:11.209Z,98811.41
2022-11-15T21:20:13.606Z,98800.53
2022-11-15T21:23:15.812Z,98797.16
2022-11-15T21:26:17.988Z,98794.75
2022-11-15T21:29:20.604Z,98795.56
2022-11-15T21:32:22.798Z,98785.38
2022-11-15T21:35:25.172Z,98781.69
2022-11-15T21:38:28.129Z,98786.81
2022-11-15T21:41:30.327Z,98780.59
2022-11-15T21:44:32.639Z,98788.00
2022-11-15T21:47:34.820Z,98779.84
2022-11-15T21:50:36.958Z,98775.59
2022-11-15T21:53:39.292Z,98778.06
2022-11-15T21:56:43.254Z,98777.06
2022-11-15T22:00:04.531Z,98780.13
2022-11-15T22:03:06.717Z,98777.59
2022-11-15T22:06:14.367Z,98787.41
2022-11-15T22:09:19.564Z,98781.91
2022-11-15T22:12:24.697Z,98787.22
2022-11-15T22:15:31.130Z,98784.19
2022-11-15T22:18:33.796Z,98768.78
2022-11-15T22:21:38.090Z,98765.44
2022-11-15T22:24:40.333Z,98763.78
2022-11-15T22:27:42.513Z,98767.06
2022-11-15T22:30:48.749Z,98757.81
2022-11-15T22:33:51.079Z,98749.47
2022-11-15T22:37:19.256Z,98750.78
2022-11-15T22:40:15.738Z,98747.97
2022-11-15T22:43:20.623Z,98734.19
2022-11-15T22:46:22.840Z,98726.13
2022-11-15T22:49:25.048Z,98720.41
2022-11-15T22:52:27.375Z,98721.56
2022-11-15T22:55:29.576Z,98711.56
2022-11-15T22:58:33.050Z,98706.63
2022-11-15T23:01:35.651Z,98707.50
2022-11-15T23:04:37.872Z,98703.47
2022-11-15T23:07:40.167Z,98698.19
2022-11-15T23:11:05.620Z,98698.97
2022-11-15T23:14:07.846Z,98700.19
2022-11-15T23:17:10.130Z,98698.00
2022-11-15T23:20:42.855Z,98694.12
2022-11-15T23:24:06.505Z,98688.03
2022-11-15T23:27:28.775Z,98682.75
2022-11-15T23:30:55.765Z,98683.97
2022-11-15T23:33:57.986Z,98678.09
2022-11-15T23:37:00.192Z,98673.59
2022-11-15T23:40:02.493Z,98672.78
2022-11-15T23:43:04.740Z,98674.63
2022-11-15T23:46:06.952Z,98669.72
2022-11-15T23:49:09.346Z,98671.38
2022-11-15T23:52:11.655Z,98664.06
2022-11-15T23:55:14.009Z,98658.97
2022-11-15T23:58:16.201Z,98657.34
